sensor_id;sensor_type;location;lat;lon;timestamp;pressure;altitude;pressure_sealevel;temperature;humidity
63395;BME280;49531;-34.520;150.798;2023-04-21T00:00:58;101961.53;;;19.68;56.08
63395;BME280;49531;-34.520;150.798;2023-04-21T00:03:25;101962.50;;;19.73;56.19
63395;BME280;49531;-34.520;150.798;2023-04-21T00:05:55;101965.81;;;19.75;56.01
63395;BME280;49531;-34.520;150.798;2023-04-21T00:08:25;101976.75;;;19.87;55.62
63395;BME280;49531;-34.520;150.798;2023-04-21T00:10:53;101946.09;;;19.68;55.77
63395;BME280;49531;-34.520;150.798;2023-04-21T00:13:20;101973.81;;;19.88;55.09
63395;BME280;49531;-34.520;150.798;2023-04-21T00:15:48;101973.16;;;19.93;54.96
63395;BME280;49531;-34.520;150.798;2023-04-21T00:18:16;101973.53;;;19.96;54.93
63395;BME280;49531;-34.520;150.798;2023-04-21T00:20:43;101973.66;;;20.02;54.87
63395;BME280;49531;-34.520;150.798;2023-04-21T00:23:10;101967.25;;;20.14;54.90
63395;BME280;49531;-34.520;150.798;2023-04-21T00:25:37;101966.19;;;20.15;54.85
63395;BME280;49531;-34.520;150.798;2023-04-21T00:28:04;101967.31;;;20.26;54.66
63395;BME280;49531;-34.520;150.798;2023-04-21T00:30:31;101969.50;;;20.36;54.15
63395;BME280;49531;-34.520;150.798;2023-04-21T00:32:59;101956.38;;;20.33;54.36
63395;BME280;49531;-34.520;150.798;2023-04-21T00:35:26;101964.00;;;20.42;54.42
63395;BME280;49531;-34.520;150.798;2023-04-21T00:37:53;101970.75;;;20.51;54.35
63395;BME280;49531;-34.520;150.798;2023-04-21T00:40:21;101961.09;;;20.55;54.20
63395;BME280;49531;-34.520;150.798;2023-04-21T00:42:48;101964.69;;;20.68;54.26
63395;BME280;49531;-34.520;150.798;2023-04-21T00:45:16;101971.31;;;20.72;54.27
63395;BME280;49531;-34.520;150.798;2023-04-21T00:47:43;101978.06;;;20.81;54.25
63395;BME280;49531;-34.520;150.798;2023-04-21T00:50:10;101968.38;;;20.85;54.00
63395;BME280;49531;-34.520;150.798;2023-04-21T00:52:40;101961.78;;;20.92;53.88
63395;BME280;49531;-34.520;150.798;2023-04-21T00:55:09;101964.03;;;20.95;53.97
63395;BME280;49531;-34.520;150.798;2023-04-21T00:57:36;101955.78;;;21.02;53.86
63395;BME280;49531;-34.520;150.798;2023-04-21T01:00:04;101959.25;;;21.09;53.69
63395;BME280;49531;-34.520;150.798;2023-04-21T01:02:34;101955.81;;;21.14;53.63
63395;BME280;49531;-34.520;150.798;2023-04-21T01:05:04;101953.34;;;21.12;53.73
63395;BME280;49531;-34.520;150.798;2023-04-21T01:07:34;101959.47;;;21.19;53.70
63395;BME280;49531;-34.520;150.798;2023-04-21T01:10:02;101960.69;;;21.23;53.66
63395;BME280;49531;-34.520;150.798;2023-04-21T01:12:30;101944.81;;;21.20;53.33
63395;BME280;49531;-34.520;150.798;2023-04-21T01:14:57;101948.16;;;21.22;53.30
63395;BME280;49531;-34.520;150.798;2023-04-21T01:17:24;101955.50;;;21.34;53.36
63395;BME280;49531;-34.520;150.798;2023-04-21T01:19:52;101950.66;;;21.36;53.10
63395;BME280;49531;-34.520;150.798;2023-04-21T01:22:21;101929.03;;;21.29;53.13
63395;BME280;49531;-34.520;150.798;2023-04-21T01:24:48;101929.25;;;21.27;52.90
63395;BME280;49531;-34.520;150.798;2023-04-21T01:27:18;101941.69;;;21.47;52.42
63395;BME280;49531;-34.520;150.798;2023-04-21T01:29:49;101946.66;;;21.50;52.45
63395;BME280;49531;-34.520;150.798;2023-04-21T01:32:19;101938.50;;;21.50;52.37
63395;BME280;49531;-34.520;150.798;2023-04-21T01:34:48;101933.06;;;21.50;52.24
63395;BME280;49531;-34.520;150.798;2023-04-21T01:37:20;101939.66;;;21.54;52.11
63395;BME280;49531;-34.520;150.798;2023-04-21T01:39:51;101932.69;;;21.58;52.35
63395;BME280;49531;-34.520;150.798;2023-04-21T01:42:23;101928.31;;;21.57;52.29
63395;BME280;49531;-34.520;150.798;2023-04-21T01:44:51;101940.59;;;21.59;52.30
63395;BME280;49531;-34.520;150.798;2023-04-21T01:47:20;101926.50;;;21.62;52.27
63395;BME280;49531;-34.520;150.798;2023-04-21T01:49:47;101914.97;;;21.55;51.91
63395;BME280;49531;-34.520;150.798;2023-04-21T01:52:15;101912.44;;;21.66;51.95
63395;BME280;49531;-34.520;150.798;2023-04-21T01:54:42;101912.22;;;21.67;51.96
63395;BME280;49531;-34.520;150.798;2023-04-21T01:57:09;101917.66;;;21.67;51.87
63395;BME280;49531;-34.520;150.798;2023-04-21T01:59:38;101921.66;;;21.76;51.73
63395;BME280;49531;-34.520;150.798;2023-04-21T02:02:05;101903.81;;;21.69;51.76
63395;BME280;49531;-34.520;150.798;2023-04-21T02:04:32;101902.03;;;21.74;51.50
63395;BME280;49531;-34.520;150.798;2023-04-21T02:06:59;101881.72;;;21.65;51.98
63395;BME280;49531;-34.520;150.798;2023-04-21T02:09:27;101907.00;;;21.77;51.68
63395;BME280;49531;-34.520;150.798;2023-04-21T02:11:55;101888.53;;;21.79;51.48
63395;BME280;49531;-34.520;150.798;2023-04-21T02:14:23;101895.97;;;21.84;51.39
63395;BME280;49531;-34.520;150.798;2023-04-21T02:16:51;101898.47;;;21.85;50.96
63395;BME280;49531;-34.520;150.798;2023-04-21T02:19:18;101888.66;;;21.84;51.27
63395;BME280;49531;-34.520;150.798;2023-04-21T02:21:46;101882.28;;;21.79;51.26
63395;BME280;49531;-34.520;150.798;2023-04-21T02:24:13;101880.97;;;21.81;51.32
63395;BME280;49531;-34.520;150.798;2023-04-21T02:26:40;101866.91;;;21.73;51.20
63395;BME280;49531;-34.520;150.798;2023-04-21T02:29:07;101864.44;;;21.71;51.21
63395;BME280;49531;-34.520;150.798;2023-04-21T02:31:34;101880.38;;;21.79;51.54
63395;BME280;49531;-34.520;150.798;2023-04-21T02:34:01;101862.31;;;21.73;51.51
63395;BME280;49531;-34.520;150.798;2023-04-21T02:36:28;101863.47;;;21.77;51.26
63395;BME280;49531;-34.520;150.798;2023-04-21T02:38:56;101874.47;;;21.82;51.26
63395;BME280;49531;-34.520;150.798;2023-04-21T02:41:23;101870.91;;;21.82;51.08
63395;BME280;49531;-34.520;150.798;2023-04-21T02:43:51;101871.25;;;21.85;50.88
63395;BME280;49531;-34.520;150.798;2023-04-21T02:46:19;101871.25;;;21.85;51.11
63395;BME280;49531;-34.520;150.798;2023-04-21T02:48:46;101873.41;;;21.83;51.30
63395;BME280;49531;-34.520;150.798;2023-04-21T02:51:13;101864.50;;;21.88;51.07
63395;BME280;49531;-34.520;150.798;2023-04-21T02:53:41;101862.03;;;21.86;50.96
63395;BME280;49531;-34.520;150.798;2023-04-21T02:56:08;101856.25;;;21.83;50.95
63395;BME280;49531;-34.520;150.798;2023-04-21T02:58:36;101865.34;;;21.88;50.80
63395;BME280;49531;-34.520;150.798;2023-04-21T03:01:04;101858.25;;;21.87;50.81
63395;BME280;49531;-34.520;150.798;2023-04-21T03:03:32;101854.94;;;21.85;50.90
63395;BME280;49531;-34.520;150.798;2023-04-21T03:06:02;101838.03;;;21.83;50.95
63395;BME280;49531;-34.520;150.798;2023-04-21T03:08:31;101849.97;;;21.82;51.05
63395;BME280;49531;-34.520;150.798;2023-04-21T03:10:59;101845.94;;;21.85;50.93
63395;BME280;49531;-34.520;150.798;2023-04-21T03:13:26;101849.97;;;21.82;51.09
63395;BME280;49531;-34.520;150.798;2023-04-21T03:15:53;101839.94;;;21.83;50.96
63395;BME280;49531;-34.520;150.798;2023-04-21T03:18:21;101849.03;;;21.88;51.17
63395;BME280;49531;-34.520;150.798;2023-04-21T03:20:48;101836.72;;;21.86;51.12
63395;BME280;49531;-34.520;150.798;2023-04-21T03:23:15;101835.31;;;21.83;51.11
63395;BME280;49531;-34.520;150.798;2023-04-21T03:25:42;101849.69;;;21.95;51.13
63395;BME280;49531;-34.520;150.798;2023-04-21T03:28:09;101837.41;;;21.93;51.06
63395;BME280;49531;-34.520;150.798;2023-04-21T03:30:37;101834.84;;;21.86;51.09
63395;BME280;49531;-34.520;150.798;2023-04-21T03:33:04;101838.47;;;21.92;51.14
63395;BME280;49531;-34.520;150.798;2023-04-21T03:35:31;101837.16;;;21.94;51.22
63395;BME280;49531;-34.520;150.798;2023-04-21T03:37:59;101832.34;;;21.85;51.18
63395;BME280;49531;-34.520;150.798;2023-04-21T03:40:26;101835.19;;;21.90;51.26
63395;BME280;49531;-34.520;150.798;2023-04-21T03:42:53;101822.88;;;21.87;51.08
63395;BME280;49531;-34.520;150.798;2023-04-21T03:45:21;101809.19;;;21.82;51.12
63395;BME280;49531;-34.520;150.798;2023-04-21T03:47:53;101837.50;;;21.98;50.83
63395;BME280;49531;-34.520;150.798;2023-04-21T03:50:20;101835.03;;;21.96;50.96
63395;BME280;49531;-34.520;150.798;2023-04-21T03:52:48;101831.25;;;21.98;50.91
63395;BME280;49531;-34.520;150.798;2023-04-21T03:55:15;101835.84;;;21.97;51.14
63395;BME280;49531;-34.520;150.798;2023-04-21T03:57:42;101818.38;;;21.93;51.04
63395;BME280;49531;-34.520;150.798;2023-04-21T04:00:09;101834.22;;;21.96;51.13
63395;BME280;49531;-34.520;150.798;2023-04-21T04:02:37;101841.63;;;22.01;50.99
63395;BME280;49531;-34.520;150.798;2023-04-21T04:05:04;101842.22;;;22.03;51.14
63395;BME280;49531;-34.520;150.798;2023-04-21T04:07:32;101833.25;;;22.02;51.23
63395;BME280;49531;-34.520;150.798;2023-04-21T04:10:00;101827.94;;;21.95;51.12
63395;BME280;49531;-34.520;150.798;2023-04-21T04:12:27;101832.91;;;21.99;51.10
63395;BME280;49531;-34.520;150.798;2023-04-21T04:14:54;101837.03;;;22.01;51.03
63395;BME280;49531;-34.520;150.798;2023-04-21T04:17:21;101830.72;;;22.01;50.94
63395;BME280;49531;-34.520;150.798;2023-04-21T04:19:49;101825.66;;;22.04;50.69
63395;BME280;49531;-34.520;150.798;2023-04-21T04:22:16;101841.16;;;22.04;50.68
63395;BME280;49531;-34.520;150.798;2023-04-21T04:24:43;101835.13;;;22.02;50.90
63395;BME280;49531;-34.520;150.798;2023-04-21T04:27:10;101833.81;;;22.04;50.69
63395;BME280;49531;-34.520;150.798;2023-04-21T04:29:39;101828.63;;;22.03;50.55
63395;BME280;49531;-34.520;150.798;2023-04-21T04:32:08;101822.00;;;21.99;50.53
63395;BME280;49531;-34.520;150.798;2023-04-21T04:34:36;101822.94;;;22.04;50.77
63395;BME280;49531;-34.520;150.798;2023-04-21T04:37:04;101843.97;;;22.09;50.76
63395;BME280;49531;-34.520;150.798;2023-04-21T04:39:31;101838.06;;;22.12;50.50
63395;BME280;49531;-34.520;150.798;2023-04-21T04:41:59;101835.34;;;22.12;50.59
63395;BME280;49531;-34.520;150.798;2023-04-21T04:44:26;101845.16;;;22.13;50.68
63395;BME280;49531;-34.520;150.798;2023-04-21T04:46:54;101837.22;;;22.11;50.70
63395;BME280;49531;-34.520;150.798;2023-04-21T04:49:21;101839.72;;;22.13;50.69
63395;BME280;49531;-34.520;150.798;2023-04-21T04:51:49;101846.22;;;22.12;50.75
63395;BME280;49531;-34.520;150.798;2023-04-21T04:54:16;101845.16;;;22.13;50.80
63395;BME280;49531;-34.520;150.798;2023-04-21T04:56:43;101840.19;;;22.10;50.63
63395;BME280;49531;-34.520;150.798;2023-04-21T04:59:10;101833.19;;;22.14;50.58
63395;BME280;49531;-34.520;150.798;2023-04-21T05:01:38;101838.88;;;22.12;50.58
63395;BME280;49531;-34.520;150.798;2023-04-21T05:04:07;101845.59;;;22.21;50.47
63395;BME280;49531;-34.520;150.798;2023-04-21T05:06:34;101841.22;;;22.20;50.35
63395;BME280;49531;-34.520;150.798;2023-04-21T05:09:01;101842.63;;;22.23;50.45
63395;BME280;49531;-34.520;150.798;2023-04-21T05:11:30;101837.09;;;22.18;50.52
63395;BME280;49531;-34.520;150.798;2023-04-21T05:13:57;101844.84;;;22.26;50.50
63395;BME280;49531;-34.520;150.798;2023-04-21T05:16:24;101842.03;;;22.21;50.72
63395;BME280;49531;-34.520;150.798;2023-04-21T05:18:51;101834.44;;;22.23;50.53
63395;BME280;49531;-34.520;150.798;2023-04-21T05:21:24;101847.47;;;22.21;50.66
63395;BME280;49531;-34.520;150.798;2023-04-21T05:23:54;101837.09;;;22.18;50.70
63395;BME280;49531;-34.520;150.798;2023-04-21T05:26:22;101840.13;;;22.21;50.70
63395;BME280;49531;-34.520;150.798;2023-04-21T05:28:49;101837.66;;;22.20;50.50
63395;BME280;49531;-34.520;150.798;2023-04-21T05:31:16;101834.69;;;22.21;50.58
63395;BME280;49531;-34.520;150.798;2023-04-21T05:33:43;101840.97;;;22.22;50.61
63395;BME280;49531;-34.520;150.798;2023-04-21T05:36:11;101841.56;;;22.24;50.58
63395;BME280;49531;-34.520;150.798;2023-04-21T05:38:38;101833.88;;;22.21;50.61
63395;BME280;49531;-34.520;150.798;2023-04-21T05:41:05;101838.25;;;22.22;50.82
63395;BME280;49531;-34.520;150.798;2023-04-21T05:43:33;101835.78;;;22.20;50.51
63395;BME280;49531;-34.520;150.798;2023-04-21T05:46:01;101828.19;;;22.22;50.51
63395;BME280;49531;-34.520;150.798;2023-04-21T05:48:29;101830.66;;;22.24;50.38
63395;BME280;49531;-34.520;150.798;2023-04-21T05:50:57;101840.34;;;22.32;49.94
63395;BME280;49531;-34.520;150.798;2023-04-21T05:53:33;101828.03;;;22.29;49.63
63395;BME280;49531;-34.520;150.798;2023-04-21T05:56:00;101846.44;;;22.39;49.75
63395;BME280;49531;-34.520;150.798;2023-04-21T05:58:28;101843.16;;;22.37;49.42
63395;BME280;49531;-34.520;150.798;2023-04-21T06:00:55;101844.13;;;22.31;49.57
63395;BME280;49531;-34.520;150.798;2023-04-21T06:03:22;101829.75;;;22.18;49.92
63395;BME280;49531;-34.520;150.798;2023-04-21T06:05:53;101850.06;;;22.27;49.80
63395;BME280;49531;-34.520;150.798;2023-04-21T06:08:21;101845.69;;;22.26;49.37
63395;BME280;49531;-34.520;150.798;2023-04-21T06:10:49;101852.94;;;22.21;49.15
63395;BME280;49531;-34.520;150.798;2023-04-21T06:13:16;101851.19;;;22.15;49.04
63395;BME280;49531;-34.520;150.798;2023-04-21T06:15:43;101864.63;;;22.21;49.22
63395;BME280;49531;-34.520;150.798;2023-04-21T06:18:10;101851.91;;;22.10;49.57
63395;BME280;49531;-34.520;150.798;2023-04-21T06:20:37;101854.63;;;22.10;49.20
63395;BME280;49531;-34.520;150.798;2023-04-21T06:23:06;101858.84;;;22.18;49.08
63395;BME280;49531;-34.520;150.798;2023-04-21T06:25:34;101849.66;;;22.07;49.01
63395;BME280;49531;-34.520;150.798;2023-04-21T06:28:02;101860.78;;;22.06;49.31
63395;BME280;49531;-34.520;150.798;2023-04-21T06:30:29;101858.41;;;22.09;49.06
63395;BME280;49531;-34.520;150.798;2023-04-21T06:32:56;101855.00;;;22.02;48.94
63395;BME280;49531;-34.520;150.798;2023-04-21T06:35:23;101865.16;;;22.07;48.75
63395;BME280;49531;-34.520;150.798;2023-04-21T06:37:51;101861.72;;;22.00;48.81
63395;BME280;49531;-34.520;150.798;2023-04-21T06:40:18;101865.06;;;22.02;48.80
63395;BME280;49531;-34.520;150.798;2023-04-21T06:42:45;101855.63;;;21.92;48.84
63395;BME280;49531;-34.520;150.798;2023-04-21T06:45:12;101858.44;;;21.98;48.80
63395;BME280;49531;-34.520;150.798;2023-04-21T06:47:39;101873.59;;;21.93;49.43
63395;BME280;49531;-34.520;150.798;2023-04-21T06:50:08;101875.25;;;21.94;49.57
63395;BME280;49531;-34.520;150.798;2023-04-21T06:52:35;101875.25;;;21.94;49.73
63395;BME280;49531;-34.520;150.798;2023-04-21T06:55:03;101814.50;;;21.49;49.93
63395;BME280;49531;-34.520;150.798;2023-04-21T06:57:30;101867.38;;;21.81;50.05
63395;BME280;49531;-34.520;150.798;2023-04-21T06:59:57;101883.31;;;21.89;49.82
63395;BME280;49531;-34.520;150.798;2023-04-21T07:02:25;101877.19;;;21.82;49.86
63395;BME280;49531;-34.520;150.798;2023-04-21T07:04:52;101880.38;;;21.79;49.79
63395;BME280;49531;-34.520;150.798;2023-04-21T07:07:19;101885.44;;;21.87;49.49
63395;BME280;49531;-34.520;150.798;2023-04-21T07:09:46;101884.28;;;21.83;50.02
63395;BME280;49531;-34.520;150.798;2023-04-21T07:12:14;101886.28;;;21.88;49.44
63395;BME280;49531;-34.520;150.798;2023-04-21T07:14:41;101895.50;;;21.87;49.73
63395;BME280;49531;-34.520;150.798;2023-04-21T07:17:08;101885.22;;;21.77;49.63
63395;BME280;49531;-34.520;150.798;2023-04-21T07:19:35;101893.88;;;21.74;49.99
63395;BME280;49531;-34.520;150.798;2023-04-21T07:22:03;101889.25;;;21.75;49.88
63395;BME280;49531;-34.520;150.798;2023-04-21T07:24:30;101896.53;;;21.57;50.29
63395;BME280;49531;-34.520;150.798;2023-04-21T07:26:59;101894.41;;;21.48;50.44
63395;BME280;49531;-34.520;150.798;2023-04-21T07:29:28;101900.53;;;21.43;50.44
63395;BME280;49531;-34.520;150.798;2023-04-21T07:31:55;101896.19;;;21.30;50.30
63395;BME280;49531;-34.520;150.798;2023-04-21T07:34:23;101915.19;;;21.30;50.67
63395;BME280;49531;-34.520;150.798;2023-04-21T07:36:51;101915.06;;;21.25;50.86
63395;BME280;49531;-34.520;150.798;2023-04-21T07:39:18;101920.16;;;21.22;51.13
63395;BME280;49531;-34.520;150.798;2023-04-21T07:41:46;101922.63;;;21.23;51.11
63395;BME280;49531;-34.520;150.798;2023-04-21T07:44:14;101901.34;;;21.09;51.28
63395;BME280;49531;-34.520;150.798;2023-04-21T07:46:41;101920.50;;;21.14;51.35
63395;BME280;49531;-34.520;150.798;2023-04-21T07:49:08;101927.25;;;21.23;51.18
63395;BME280;49531;-34.520;150.798;2023-04-21T07:51:36;101931.59;;;21.12;51.42
63395;BME280;49531;-34.520;150.798;2023-04-21T07:54:05;101944.63;;;21.22;51.51
63395;BME280;49531;-34.520;150.798;2023-04-21T07:56:32;101935.38;;;21.11;51.56
63395;BME280;49531;-34.520;150.798;2023-04-21T07:58:59;101925.66;;;20.92;51.85
63395;BME280;49531;-34.520;150.798;2023-04-21T08:01:26;101942.00;;;21.15;51.55
63395;BME280;49531;-34.520;150.798;2023-04-21T08:03:53;101952.75;;;21.22;51.62
63395;BME280;49531;-34.520;150.798;2023-04-21T08:06:21;101960.94;;;21.34;51.47
63395;BME280;49531;-34.520;150.798;2023-04-21T08:08:48;101960.47;;;21.37;51.34
63395;BME280;49531;-34.520;150.798;2023-04-21T08:11:15;101969.19;;;21.27;51.53
63395;BME280;49531;-34.520;150.798;2023-04-21T08:13:42;101957.47;;;21.15;51.74
63395;BME280;49531;-34.520;150.798;2023-04-21T08:16:10;101961.69;;;20.99;52.10
63395;BME280;49531;-34.520;150.798;2023-04-21T08:18:37;101964.88;;;20.96;52.15
63395;BME280;49531;-34.520;150.798;2023-04-21T08:21:04;101971.50;;;21.00;51.95
63395;BME280;49531;-34.520;150.798;2023-04-21T08:23:31;101966.63;;;20.90;52.16
63395;BME280;49531;-34.520;150.798;2023-04-21T08:26:00;101976.19;;;20.93;52.29
63395;BME280;49531;-34.520;150.798;2023-04-21T08:28:28;101974.44;;;20.98;52.33
63395;BME280;49531;-34.520;150.798;2023-04-21T08:30:55;101983.56;;;21.04;52.44
63395;BME280;49531;-34.520;150.798;2023-04-21T08:33:22;101975.28;;;20.99;52.23
63395;BME280;49531;-34.520;150.798;2023-04-21T08:35:49;101974.81;;;21.02;52.00
63395;BME280;49531;-34.520;150.798;2023-04-21T08:38:16;101994.06;;;21.01;52.06
63395;BME280;49531;-34.520;150.798;2023-04-21T08:40:43;101997.69;;;20.94;52.19
63395;BME280;49531;-34.520;150.798;2023-04-21T08:43:11;101999.59;;;20.94;51.86
63395;BME280;49531;-34.520;150.798;2023-04-21T08:45:38;102007.13;;;20.92;52.17
63395;BME280;49531;-34.520;150.798;2023-04-21T08:48:09;102007.00;;;20.87;52.16
63395;BME280;49531;-34.520;150.798;2023-04-21T08:50:43;102001.94;;;20.90;52.12
63395;BME280;49531;-34.520;150.798;2023-04-21T08:53:13;101999.59;;;20.94;51.92
63395;BME280;49531;-34.520;150.798;2023-04-21T08:55:41;102005.88;;;21.06;51.85
63395;BME280;49531;-34.520;150.798;2023-04-21T08:58:08;102019.94;;;21.03;51.83
63395;BME280;49531;-34.520;150.798;2023-04-21T09:00:36;102020.41;;;21.00;52.00
63395;BME280;49531;-34.520;150.798;2023-04-21T09:03:04;102011.66;;;20.98;51.93
63395;BME280;49531;-34.520;150.798;2023-04-21T09:05:33;102019.47;;;21.06;51.97
63395;BME280;49531;-34.520;150.798;2023-04-21T09:08:10;102007.00;;;20.87;52.13
63395;BME280;49531;-34.520;150.798;2023-04-21T09:10:46;102021.69;;;20.97;52.00
63395;BME280;49531;-34.520;150.798;2023-04-21T09:13:15;102029.59;;;20.99;52.06
63395;BME280;49531;-34.520;150.798;2023-04-21T09:15:49;102032.91;;;21.01;52.24
63395;BME280;49531;-34.520;150.798;2023-04-21T09:18:20;102029.38;;;21.01;51.96
63395;BME280;49531;-34.520;150.798;2023-04-21T09:20:50;102037.88;;;21.04;51.96
63395;BME280;49531;-34.520;150.798;2023-04-21T09:23:20;102042.25;;;21.05;51.92
63395;BME280;49531;-34.520;150.798;2023-04-21T09:25:48;102039.78;;;21.04;51.95
63395;BME280;49531;-34.520;150.798;2023-04-21T09:28:15;102031.03;;;21.02;51.98
63395;BME280;49531;-34.520;150.798;2023-04-21T09:30:42;102031.25;;;21.00;51.92
63395;BME280;49531;-34.520;150.798;2023-04-21T09:33:16;102046.28;;;21.03;51.81
63395;BME280;49531;-34.520;150.798;2023-04-21T09:35:43;102036.94;;;20.98;51.94
63395;BME280;49531;-34.520;150.798;2023-04-21T09:38:11;102050.88;;;21.02;51.88
63395;BME280;49531;-34.520;150.798;2023-04-21T09:40:39;102043.66;;;20.96;51.90
63395;BME280;49531;-34.520;150.798;2023-04-21T09:43:06;102050.50;;;20.98;51.09
63395;BME280;49531;-34.520;150.798;2023-04-21T09:45:35;102061.28;;;21.05;50.71
63395;BME280;49531;-34.520;150.798;2023-04-21T09:48:03;102055.66;;;20.88;51.13
63395;BME280;49531;-34.520;150.798;2023-04-21T09:50:32;102058.59;;;20.87;51.46
63395;BME280;49531;-34.520;150.798;2023-04-21T09:53:01;102049.78;;;20.91;51.38
63395;BME280;49531;-34.520;150.798;2023-04-21T09:55:31;102055.44;;;20.90;51.32
63395;BME280;49531;-34.520;150.798;2023-04-21T09:58:02;102054.88;;;21.00;51.28
63395;BME280;49531;-34.520;150.798;2023-04-21T10:00:32;102034.97;;;20.76;51.42
63395;BME280;49531;-34.520;150.798;2023-04-21T10:03:05;102060.25;;;20.88;51.62
63395;BME280;49531;-34.520;150.798;2023-04-21T10:05:37;102063.88;;;20.82;51.68
63395;BME280;49531;-34.520;150.798;2023-04-21T10:08:04;102064.38;;;20.79;51.80
63395;BME280;49531;-34.520;150.798;2023-04-21T10:10:32;102078.41;;;20.76;51.87
63395;BME280;49531;-34.520;150.798;2023-04-21T10:13:01;102075.94;;;20.74;51.95
63395;BME280;49531;-34.520;150.798;2023-04-21T10:15:32;102072.25;;;20.69;52.05
63395;BME280;49531;-34.520;150.798;2023-04-21T10:18:12;102069.97;;;20.66;52.08
63395;BME280;49531;-34.520;150.798;2023-04-21T10:20:52;102072.47;;;20.67;51.98
63395;BME280;49531;-34.520;150.798;2023-04-21T10:23:44;102079.56;;;20.68;52.04
63395;BME280;49531;-34.520;150.798;2023-04-21T10:26:16;102075.56;;;20.71;52.18
63395;BME280;49531;-34.520;150.798;2023-04-21T10:28:58;102079.78;;;20.67;51.84
63395;BME280;49531;-34.520;150.798;2023-04-21T10:31:30;102068.31;;;20.64;51.82
63395;BME280;49531;-34.520;150.798;2023-04-21T10:34:18;102083.00;;;20.75;51.79
63395;BME280;49531;-34.520;150.798;2023-04-21T10:37:08;102086.78;;;20.74;51.76
63395;BME280;49531;-34.520;150.798;2023-04-21T10:39:43;102081.59;;;20.73;51.66
63395;BME280;49531;-34.520;150.798;2023-04-21T10:42:21;102090.94;;;20.77;51.68
63395;BME280;49531;-34.520;150.798;2023-04-21T10:45:00;102082.41;;;20.73;51.71
63395;BME280;49531;-34.520;150.798;2023-04-21T10:47:40;102084.53;;;20.71;51.72
63395;BME280;49531;-34.520;150.798;2023-04-21T10:50:12;102099.31;;;20.75;51.50
63395;BME280;49531;-34.520;150.798;2023-04-21T10:52:44;102092.69;;;20.71;51.85
63395;BME280;49531;-34.520;150.798;2023-04-21T10:55:12;102101.81;;;20.77;51.53
63395;BME280;49531;-34.520;150.798;2023-04-21T10:57:43;102104.97;;;20.74;51.71
63395;BME280;49531;-34.520;150.798;2023-04-21T11:00:15;102102.25;;;20.74;51.48
63395;BME280;49531;-34.520;150.798;2023-04-21T11:02:43;102113.13;;;20.74;51.50
63395;BME280;49531;-34.520;150.798;2023-04-21T11:05:10;102114.41;;;20.71;51.55
63395;BME280;49531;-34.520;150.798;2023-04-21T11:07:38;102105.66;;;20.69;51.55
63395;BME280;49531;-34.520;150.798;2023-04-21T11:10:07;102112.38;;;20.67;51.60
63395;BME280;49531;-34.520;150.798;2023-04-21T11:12:38;102109.56;;;20.55;51.75
63395;BME280;49531;-34.520;150.798;2023-04-21T11:15:07;102119.16;;;20.57;51.84
63395;BME280;49531;-34.520;150.798;2023-04-21T11:17:35;102118.75;;;20.54;52.01
63395;BME280;49531;-34.520;150.798;2023-04-21T11:20:05;102112.13;;;20.50;52.02
63395;BME280;49531;-34.520;150.798;2023-04-21T11:22:33;102098.09;;;20.35;52.01
63395;BME280;49531;-34.520;150.798;2023-04-21T11:25:02;102124.28;;;20.47;52.03
63395;BME280;49531;-34.520;150.798;2023-04-21T11:27:29;102117.19;;;20.46;52.10
63395;BME280;49531;-34.520;150.798;2023-04-21T11:29:57;102117.03;;;20.41;52.18
63395;BME280;49531;-34.520;150.798;2023-04-21T11:32:24;102114.53;;;20.40;52.11
63395;BME280;49531;-34.520;150.798;2023-04-21T11:34:51;102109.94;;;20.40;52.11
63395;BME280;49531;-34.520;150.798;2023-04-21T11:37:25;102120.34;;;20.43;52.20
63395;BME280;49531;-34.520;150.798;2023-04-21T11:39:58;102116.56;;;20.44;52.13
63395;BME280;49531;-34.520;150.798;2023-04-21T11:42:25;102122.00;;;20.44;52.07
63395;BME280;49531;-34.520;150.798;2023-04-21T11:44:55;102116.56;;;20.44;51.99
63395;BME280;49531;-34.520;150.798;2023-04-21T11:47:24;102117.25;;;20.40;51.92
63395;BME280;49531;-34.520;150.798;2023-04-21T11:49:56;102106.84;;;20.37;52.10
63395;BME280;49531;-34.520;150.798;2023-04-21T11:52:30;102124.34;;;20.41;52.12
63395;BME280;49531;-34.520;150.798;2023-04-21T11:55:01;102114.16;;;20.36;52.10
63395;BME280;49531;-34.520;150.798;2023-04-21T11:57:30;102115.22;;;20.35;52.07
63395;BME280;49531;-34.520;150.798;2023-04-21T12:00:01;102121.88;;;20.39;51.99
63395;BME280;49531;-34.520;150.798;2023-04-21T12:02:30;102124.19;;;20.36;52.11
63395;BME280;49531;-34.520;150.798;2023-04-21T12:05:02;102117.75;;;20.30;52.16
63395;BME280;49531;-34.520;150.798;2023-04-21T12:07:34;102125.66;;;20.38;51.92
63395;BME280;49531;-34.520;150.798;2023-04-21T12:10:07;102116.03;;;20.36;51.83
63395;BME280;49531;-34.520;150.798;2023-04-21T12:12:37;102109.38;;;20.38;51.67
63395;BME280;49531;-34.520;150.798;2023-04-21T12:15:06;102109.78;;;20.35;51.89
63395;BME280;49531;-34.520;150.798;2023-04-21T12:17:42;102092.56;;;20.23;51.77
63395;BME280;49531;-34.520;150.798;2023-04-21T12:20:11;102116.25;;;20.34;51.92
63395;BME280;49531;-34.520;150.798;2023-04-21T12:22:38;102113.22;;;20.24;52.07
63395;BME280;49531;-34.520;150.798;2023-04-21T12:25:05;102123.63;;;20.27;52.09
63395;BME280;49531;-34.520;150.798;2023-04-21T12:27:34;102115.78;;;20.19;52.16